sensor_id;sensor_type;location;lat;lon;timestamp;pressure;altitude;pressure_sealevel;temperature;humidity
55592;BME280;41454;53.396;-1.510;2022-09-17T14:03:52;100759.26;;;15.78;71.62
55592;BME280;41454;53.396;-1.510;2022-09-17T14:06:53;100757.84;;;15.02;63.30
55592;BME280;41454;53.396;-1.510;2022-09-17T14:09:56;100748.54;;;16.59;55.99
55592;BME280;41454;53.396;-1.510;2022-09-17T14:14:50;100749.04;;;17.50;52.06
55592;BME280;41454;53.396;-1.510;2022-09-17T14:17:51;100750.61;;;17.55;50.75
55592;BME280;41454;53.396;-1.510;2022-09-17T14:20:19;100746.99;;;17.86;49.87
55592;BME280;41454;53.396;-1.510;2022-09-17T14:22:55;100740.51;;;18.01;49.64
55592;BME280;41454;53.396;-1.510;2022-09-17T14:25:30;100740.33;;;17.90;49.28
55592;BME280;41454;53.396;-1.510;2022-09-17T14:28:02;100742.32;;;17.59;49.90
55592;BME280;41454;53.396;-1.510;2022-09-17T14:30:34;100744.15;;;17.60;49.33
55592;BME280;41454;53.396;-1.510;2022-09-17T14:33:05;100739.51;;;17.40;49.70
55592;BME280;41454;53.396;-1.510;2022-09-17T14:35:36;100742.22;;;17.82;49.58
55592;BME280;41454;53.396;-1.510;2022-09-17T14:38:12;100750.20;;;17.42;48.55
55592;BME280;41454;53.396;-1.510;2022-09-17T14:40:43;100740.06;;;17.86;47.62
55592;BME280;41454;53.396;-1.510;2022-09-17T14:43:17;100739.16;;;17.42;47.79
55592;BME280;41454;53.396;-1.510;2022-09-17T14:45:50;100739.60;;;17.96;47.17
55592;BME280;41454;53.396;-1.510;2022-09-17T14:48:26;100735.79;;;17.82;47.58
55592;BME280;41454;53.396;-1.510;2022-09-17T14:51:17;100741.89;;;17.75;47.93
55592;BME280;41454;53.396;-1.510;2022-09-17T14:54:08;100740.97;;;17.91;47.16
55592;BME280;41454;53.396;-1.510;2022-09-17T14:56:52;100744.40;;;18.11;46.74
55592;BME280;41454;53.396;-1.510;2022-09-17T14:59:28;100744.82;;;17.70;46.43
55592;BME280;41454;53.396;-1.510;2022-09-17T15:02:01;100743.42;;;17.97;46.72
55592;BME280;41454;53.396;-1.510;2022-09-17T15:04:29;100742.21;;;18.01;47.89
55592;BME280;41454;53.396;-1.510;2022-09-17T15:07:07;100739.35;;;17.52;47.04
55592;BME280;41454;53.396;-1.510;2022-09-17T15:09:37;100735.95;;;17.50;47.04
55592;BME280;41454;53.396;-1.510;2022-09-17T15:12:07;100734.28;;;17.89;46.72
55592;BME280;41454;53.396;-1.510;2022-09-17T15:14:37;100731.86;;;17.98;45.42
55592;BME280;41454;53.396;-1.510;2022-09-17T15:17:06;100734.83;;;17.83;45.82
55592;BME280;41454;53.396;-1.510;2022-09-17T15:19:43;100734.18;;;17.74;45.47
55592;BME280;41454;53.396;-1.510;2022-09-17T15:22:15;100736.95;;;18.11;45.89
55592;BME280;41454;53.396;-1.510;2022-09-17T15:24:46;100733.49;;;17.68;46.45
55592;BME280;41454;53.396;-1.510;2022-09-17T15:27:20;100730.24;;;17.18;46.71
55592;BME280;41454;53.396;-1.510;2022-09-17T15:29:50;100731.74;;;17.74;46.52
55592;BME280;41454;53.396;-1.510;2022-09-17T15:32:19;100732.91;;;17.68;46.28
55592;BME280;41454;53.396;-1.510;2022-09-17T15:35:21;100731.82;;;17.61;45.82
55592;BME280;41454;53.396;-1.510;2022-09-17T15:37:50;100732.68;;;17.47;46.54
55592;BME280;41454;53.396;-1.510;2022-09-17T15:40:24;100734.66;;;19.18;46.05
55592;BME280;41454;53.396;-1.510;2022-09-17T15:43:00;100727.58;;;19.11;46.85
55592;BME280;41454;53.396;-1.510;2022-09-17T15:45:28;100729.31;;;18.62;48.36
55592;BME280;41454;53.396;-1.510;2022-09-17T15:47:57;100729.42;;;18.28;49.48
55592;BME280;41454;53.396;-1.510;2022-09-17T15:50:26;100732.02;;;18.07;50.30
55592;BME280;41454;53.396;-1.510;2022-09-17T15:53:27;100726.56;;;17.97;50.95
55592;BME280;41454;53.396;-1.510;2022-09-17T15:56:01;100733.05;;;17.85;49.73
55592;BME280;41454;53.396;-1.510;2022-09-17T15:58:30;100727.26;;;17.64;50.88
55592;BME280;41454;53.396;-1.510;2022-09-17T16:01:50;100724.20;;;18.08;50.74
55592;BME280;41454;53.396;-1.510;2022-09-17T16:04:21;100730.25;;;17.78;50.81
55592;BME280;41454;53.396;-1.510;2022-09-17T16:06:52;100728.68;;;17.84;51.08
55592;BME280;41454;53.396;-1.510;2022-09-17T16:09:38;100731.46;;;17.73;52.19
55592;BME280;41454;53.396;-1.510;2022-09-17T16:12:06;100724.85;;;17.99;52.02
55592;BME280;41454;53.396;-1.510;2022-09-17T16:14:33;100725.34;;;18.02;52.28
55592;BME280;41454;53.396;-1.510;2022-09-17T16:17:13;100725.42;;;17.93;52.02
55592;BME280;41454;53.396;-1.510;2022-09-17T16:19:46;100722.49;;;18.25;52.00
55592;BME280;41454;53.396;-1.510;2022-09-17T16:22:12;100726.13;;;18.13;51.89
55592;BME280;41454;53.396;-1.510;2022-09-17T16:24:40;100727.14;;;18.21;52.37
55592;BME280;41454;53.396;-1.510;2022-09-17T16:27:14;100726.89;;;18.15;52.51
55592;BME280;41454;53.396;-1.510;2022-09-17T16:29:42;100722.28;;;18.17;52.66
55592;BME280;41454;53.396;-1.510;2022-09-17T16:32:10;100719.39;;;18.15;52.83
55592;BME280;41454;53.396;-1.510;2022-09-17T16:34:37;100717.58;;;18.12;53.03
55592;BME280;41454;53.396;-1.510;2022-09-17T16:37:04;100713.70;;;17.92;53.16
55592;BME280;41454;53.396;-1.510;2022-09-17T16:39:30;100710.14;;;18.11;53.51
55592;BME280;41454;53.396;-1.510;2022-09-17T16:41:57;100709.98;;;18.10;53.93
55592;BME280;41454;53.396;-1.510;2022-09-17T16:44:24;100707.40;;;18.10;54.37
55592;BME280;41454;53.396;-1.510;2022-09-17T16:46:50;100704.47;;;17.96;53.95
55592;BME280;41454;53.396;-1.510;2022-09-17T16:49:17;100710.72;;;18.38;54.08
55592;BME280;41454;53.396;-1.510;2022-09-17T16:51:44;100711.39;;;17.89;54.69
55592;BME280;41454;53.396;-1.510;2022-09-17T16:54:10;100705.09;;;18.09;55.76
55592;BME280;41454;53.396;-1.510;2022-09-17T16:56:37;100705.84;;;18.24;57.17
55592;BME280;41454;53.396;-1.510;2022-09-17T16:59:04;100705.63;;;18.29;59.24
55592;BME280;41454;53.396;-1.510;2022-09-17T17:01:31;100710.08;;;18.24;59.18
55592;BME280;41454;53.396;-1.510;2022-09-17T17:03:57;100707.64;;;18.24;60.40
55592;BME280;41454;53.396;-1.510;2022-09-17T17:06:25;100700.86;;;18.19;61.49
55592;BME280;41454;53.396;-1.510;2022-09-17T17:08:52;100696.69;;;18.16;61.02
55592;BME280;41454;53.396;-1.510;2022-09-17T17:11:19;100692.74;;;18.16;60.54
55592;BME280;41454;53.396;-1.510;2022-09-17T17:13:46;100689.81;;;18.16;59.92
55592;BME280;41454;53.396;-1.510;2022-09-17T17:16:14;100693.89;;;18.13;59.81
55592;BME280;41454;53.396;-1.510;2022-09-17T17:18:41;100691.79;;;18.17;59.34
55592;BME280;41454;53.396;-1.510;2022-09-17T17:21:11;100688.49;;;18.41;59.31
55592;BME280;41454;53.396;-1.510;2022-09-17T17:23:39;100683.43;;;18.14;58.80
55592;BME280;41454;53.396;-1.510;2022-09-17T17:26:06;100685.48;;;18.14;58.50
55592;BME280;41454;53.396;-1.510;2022-09-17T17:28:34;100685.98;;;18.16;58.18
55592;BME280;41454;53.396;-1.510;2022-09-17T17:31:02;100679.69;;;18.21;57.60
55592;BME280;41454;53.396;-1.510;2022-09-17T17:33:30;100679.80;;;18.12;57.91
55592;BME280;41454;53.396;-1.510;2022-09-17T17:35:58;100683.03;;;18.16;57.60
55592;BME280;41454;53.396;-1.510;2022-09-17T17:38:26;100688.54;;;18.21;57.10
55592;BME280;41454;53.396;-1.510;2022-09-17T17:41:02;100681.03;;;18.21;57.04
55592;BME280;41454;53.396;-1.510;2022-09-17T17:43:29;100679.98;;;18.29;56.81
55592;BME280;41454;53.396;-1.510;2022-09-17T17:45:56;100685.59;;;18.25;56.68
55592;BME280;41454;53.396;-1.510;2022-09-17T17:48:23;100682.53;;;18.54;56.48
55592;BME280;41454;53.396;-1.510;2022-09-17T17:50:49;100684.59;;;18.23;56.51
55592;BME280;41454;53.396;-1.510;2022-09-17T17:53:17;100689.88;;;16.44;56.84
55592;BME280;41454;53.396;-1.510;2022-09-17T17:55:54;100692.75;;;17.42;53.97
55592;BME280;41454;53.396;-1.510;2022-09-17T17:58:22;100692.53;;;19.30;53.82
55592;BME280;41454;53.396;-1.510;2022-09-17T18:00:49;100694.50;;;18.76;55.28
55592;BME280;41454;53.396;-1.510;2022-09-17T18:03:17;100695.05;;;18.45;56.39
55592;BME280;41454;53.396;-1.510;2022-09-17T18:05:45;100699.25;;;18.76;57.34
55592;BME280;41454;53.396;-1.510;2022-09-17T18:09:25;100700.37;;;18.41;56.60
55592;BME280;41454;53.396;-1.510;2022-09-17T18:11:52;100694.91;;;18.75;56.20
55592;BME280;41454;53.396;-1.510;2022-09-17T18:14:20;100697.97;;;17.90;57.64
55592;BME280;41454;53.396;-1.510;2022-09-17T18:16:47;100699.82;;;18.99;57.09
55592;BME280;41454;53.396;-1.510;2022-09-17T18:19:14;100694.17;;;18.86;58.24
55592;BME280;41454;53.396;-1.510;2022-09-17T18:21:40;100695.50;;;18.79;58.36
55592;BME280;41454;53.396;-1.510;2022-09-17T18:24:07;100697.88;;;18.45;58.84
